Weather observations for the past three days for
Shishmaref, Shishmaref Airport
| Date | Time (akdt) | Wind (mph) | Vis. (mi.) | Weather | Sky Cond. | Temperature (ºF) | Relative Humidity | Wind Chill (°F) | Heat Index (°F) | Pressure | Precipitation (in) | ||||||
|---|---|---|---|---|---|---|---|---|---|---|---|---|---|---|---|---|---|
| Air | Dwpt | 6 hour | altimeter (in) | sea level (mb) | 1 hr | 3 hr | 6 hr | ||||||||||
| Max. | Min. | ||||||||||||||||
| 10 | 13:56 | N 12 | 10.00 | Overcast | OVC040 | 34 | 26.1 | 73% | 26 | 29.58 | 1001.9 | ||||||
| 10 | 12:56 | N 6 | 10.00 | Overcast | OVC040 | 34 | 25 | 70% | 29 | 29.59 | 1002.1 | ||||||
| 10 | 11:56 | NW 6 | 10.00 | Fair | CLR | 28 | 24.1 | 85% | 22 | 29.59 | 1002.0 | ||||||
| 10 | 10:56 | W 5 | 10.00 | Fair | CLR | 25 | 21 | 85% | 20 | 29.59 | 1002.2 | ||||||
| 10 | 09:56 | W 3 | 10.00 | Mostly Cloudy | BKN041 | 23 | 19.9 | 23 | 12.9 | 88% | 29.59 | 1002.2 | |||||
| 10 | 08:56 | W 8 | 10.00 | A Few Clouds | FEW045 | 18 | 15.1 | 88% | 9 | 29.6 | 1002.3 | ||||||
| 10 | 07:56 | W 8 | 10.00 | Fair | CLR | 15.1 | 12.9 | 91% | 5 | 29.6 | 1002.3 | ||||||
| 10 | 06:56 | NW 5 | 10.00 | Fair | CLR | 14 | 12 | 92% | 7 | 29.6 | 1002.4 | ||||||
| 10 | 05:56 | W 9 | 10.00 | Fair | CLR | 12.9 | 10.9 | 92% | 2 | 29.61 | 1002.7 | ||||||
| 10 | 04:56 | W 8 | 10.00 | Fair | CLR | 14 | 12 | 92% | 4 | 29.61 | 1002.8 | ||||||
| 10 | 03:56 | W 8 | 10.00 | Fair | CLR | 16 | 14 | 27 | 16 | 92% | 6 | 29.62 | 1003.0 | ||||
| 10 | 02:56 | Calm | 10.00 | Fair | CLR | 18 | 16 | 92% | 29.61 | 1002.9 | |||||||
| 10 | 01:56 | NW 8 | 10.00 | Fair | CLR | 18 | 16 | 92% | 9 | 29.62 | 1002.9 | ||||||
| 10 | 00:56 | NW 5 | 10.00 | Fair | CLR | 19.9 | 18 | 92% | 14 | 29.61 | 1002.8 | ||||||
| 09 | 23:56 | NW 8 | 10.00 | Fair | CLR | 21.9 | 19 | 89% | 13 | 29.61 | 1002.8 | ||||||
| 09 | 22:56 | N 9 | 10.00 | Fair | CLR | 24.1 | 21 | 88% | 15 | 29.61 | 1002.9 | ||||||
| 09 | 21:56 | N 12 | 10.00 | Fair | CLR | 27 | 23 | 30 | 27 | 85% | 17 | 29.61 | 1002.7 | ||||
| 09 | 20:56 | N 13 | 10.00 | Fair | CLR | 28.9 | 24.1 | 82% | 19 | 29.6 | 1002.5 | ||||||
| 09 | 19:56 | N 14 | 10.00 | Fair | CLR | 30 | 25 | 82% | 20 | 29.61 | 1002.6 | ||||||
| 09 | 18:56 | N 14 | 10.00 | A Few Clouds | FEW100 | 30 | 25 | 82% | 20 | 29.62 | 1003.0 | ||||||
| 09 | 16:56 | NW 13 | 10.00 | Fair | CLR | 28 | 23 | 81% | 18 | 29.65 | 1004.0 | ||||||
| 09 | 15:56 | NW 13 | 10.00 | Fair | CLR | 27 | 21.9 | 28 | 24.1 | 81% | 17 | 29.67 | 1004.8 | ||||
| 09 | 14:56 | NW 14 | 10.00 | Fair | CLR | 27 | 21 | 78% | 16 | 29.68 | 1005.2 | ||||||
| 09 | 13:56 | NW 12 | 10.00 | Fair | CLR | 26.1 | 21 | 81% | 16 | 29.7 | 1005.8 | ||||||
| 09 | 12:56 | N 10 | 10.00 | Fair | CLR | 26.1 | 19.9 | 78% | 17 | 29.71 | 1006.2 | ||||||
| 09 | 11:56 | N 10 | 10.00 | Fair | CLR | 27 | 21 | 78% | 18 | 29.73 | 1006.6 | ||||||
| 09 | 10:56 | N 7 | 10.00 | Fair | CLR | 26.1 | 19.9 | 78% | 19 | 29.74 | 1007.0 | ||||||
| 09 | 09:56 | N 9 | 10.00 | Fair | CLR | 24.1 | 19.9 | 24.1 | 14 | 84% | 15 | 29.74 | 1007.3 | ||||
| 09 | 08:56 | N 9 | 10.00 | Fair | CLR | 21 | 18 | 88% | 11 | 29.75 | 1007.5 | ||||||
| 09 | 07:56 | N 9 | 10.00 | Fair | CLR | 17.1 | 15.1 | 92% | 7 | 29.76 | 1007.7 | ||||||
| 09 | 06:56 | NW 12 | 10.00 | Fair | CLR | 16 | 14 | 92% | 4 | 29.76 | 1007.8 | ||||||
| 09 | 05:56 | N 7 | 10.00 | Fair | CLR | 16 | 14 | 92% | 7 | 29.78 | 1008.3 | ||||||
| 09 | 04:56 | NW 9 | 10.00 | Fair | CLR | 14 | 12 | 92% | 3 | 29.79 | 1008.8 | ||||||
| 09 | 03:56 | W 9 | 10.00 | Fair | CLR | 15.1 | 12.9 | 25 | 15.1 | 91% | 4 | 29.8 | 1009.3 | ||||
| 09 | 02:56 | W 9 | 10.00 | Fair | CLR | 16 | 14 | 92% | 5 | 29.82 | 1010.0 | ||||||
| 09 | 01:56 | W 12 | 10.00 | Fair | CLR | 18 | 16 | 92% | 6 | 29.84 | 1010.6 | ||||||
| 09 | 00:56 | W 10 | 10.00 | Mostly Cloudy | BKN009 | 21 | 18 | 88% | 11 | 29.86 | 1011.3 | ||||||
| 08 | 23:56 | NW 12 | 10.00 | Overcast | OVC011 | 24.1 | 21 | 88% | 14 | 29.88 | 1012.0 | ||||||
| 08 | 22:56 | N 10 | 10.00 | Overcast | OVC011 | 24.1 | 21 | 88% | 15 | 29.9 | 1012.6 | ||||||
| 08 | 20:56 | NW 10 | 10.00 | Overcast | OVC011 | 25 | 21.9 | 88% | 16 | 29.94 | 1013.8 | ||||||
| 08 | 19:56 | NW 10 | 10.00 | Overcast | OVC005 | 24.1 | 21 | 88% | 15 | 29.96 | 1014.5 | ||||||
| 08 | 18:56 | NW 8 | 10.00 | Overcast | OVC005 | 23 | 19.9 | 88% | 15 | 29.98 | 1015.2 | ||||||
| 08 | 17:56 | NW 8 | 10.00 | Overcast | OVC005 | 23 | 19.9 | 88% | 15 | 30 | 1015.9 | ||||||
| 08 | 16:56 | NW 6 | 10.00 | Overcast | OVC007 | 24.1 | 19 | 81% | 18 | 30.02 | 1016.6 | ||||||
| 08 | 15:56 | N 6 | 10.00 | Overcast | OVC007 | 23 | 17.1 | 24.1 | 19.9 | 78% | 17 | 30.04 | 1017.4 | ||||
| 08 | 14:56 | NW 9 | 10.00 | Overcast | OVC005 | 21 | 18 | 88% | 11 | 30.06 | 1018.0 | ||||||
| 08 | 13:56 | NW 8 | 10.00 | Overcast | OVC005 | 21.9 | 18 | 85% | 13 | 30.08 | 1018.5 | ||||||
| 08 | 12:56 | NW 5 | 10.00 | Overcast | OVC005 | 21.9 | 18 | 85% | 16 | 30.09 | 1018.9 | ||||||
| 08 | 11:56 | Calm | 10.00 | Overcast | OVC005 | 23 | 19 | 85% | 30.1 | 1019.3 | |||||||
| 08 | 10:56 | Calm | 10.00 | Overcast | OVC007 | 23 | 19 | 85% | 30.12 | 1019.9 | |||||||
| 08 | 09:56 | Calm | 10.00 | Overcast | OVC007 | 21.9 | 19 | 21.9 | 21 | 89% | 30.13 | 1020.4 | |||||
| 08 | 08:56 | Calm | 10.00 | Overcast | OVC007 | 21 | 18 | 88% | 30.14 | 1020.6 | |||||||
| 08 | 07:56 | Calm | 10.00 | Overcast | OVC007 | 21 | 18 | 88% | 30.15 | 1020.9 | |||||||
| 08 | 06:56 | W 3 | 10.00 | Overcast | OVC007 | 21 | 18 | 88% | 30.15 | 1021.1 | |||||||
| 08 | 05:56 | NW 3 | 10.00 | Overcast | OVC009 | 21 | 18 | 88% | 30.16 | 1021.5 | |||||||
| 08 | 04:56 | Calm | 10.00 | Overcast | OVC009 | 21 | 18 | 88% | 30.16 | 1021.5 | |||||||
| 08 | 03:56 | Calm | 10.00 | Overcast | OVC009 | 21 | 18 | 23 | 21 | 88% | 30.18 | 1021.9 | |||||
| 08 | 02:56 | W 3 | 10.00 | Overcast | OVC009 | 21 | 18 | 88% | 30.18 | 1022.2 | |||||||
| 08 | 01:56 | NW 7 | 10.00 | Overcast | OVC011 | 21.9 | 18 | 85% | 14 | 30.19 | 1022.3 | ||||||
| 08 | 00:56 | NW 3 | 10.00 | Overcast | OVC011 | 21.9 | 18 | 85% | 30.19 | 1022.5 | |||||||
| 07 | 23:56 | Calm | 10.00 | Overcast | OVC011 | 21.9 | 18 | 85% | 30.19 | 1022.5 | |||||||
| 07 | 22:56 | Calm | 10.00 | Overcast | OVC009 | 23 | 19 | 85% | 30.2 | 1022.7 | |||||||
| 07 | 21:56 | NW 5 | 10.00 | Overcast | OVC009 | 23 | 19 | 27 | 23 | 85% | 18 | 30.2 | 1022.6 | ||||
| 07 | 20:56 | NW 6 | 10.00 | Overcast | OVC009 | 23 | 18 | 81% | 17 | 30.2 | 1022.6 | ||||||
| 07 | 19:56 | N 5 | 10.00 | Overcast | OVC009 | 24.1 | 19 | 81% | 19 | 30.2 | 1022.7 | ||||||
| 07 | 18:56 | N 7 | 10.00 | Overcast | OVC009 | 25 | 19 | 78% | 18 | 30.2 | 1022.8 | ||||||
| 07 | 17:56 | N 5 | 10.00 | Overcast | OVC009 | 26.1 | 19.9 | 78% | 21 | 30.21 | 1023.0 | ||||||
| 07 | 16:56 | N 9 | 10.00 | Overcast | OVC011 | 26.1 | 19.9 | 78% | 18 | 30.21 | 1023.0 | ||||||
| 07 | 15:56 | N 7 | 10.00 | Overcast | OVC009 | 25 | 19.9 | 25 | 19.9 | 81% | 18 | 30.22 | 1023.2 | ||||
| 07 | 14:56 | NW 10 | 10.00 | Overcast | OVC009 | 21.9 | 19 | 89% | 12 | 30.22 | 1023.3 | ||||||
| Date | Time (akdt) | Wind (mph) | Vis. (mi.) | Weather | Sky Cond. | Air | Dwpt | Max. | Min. | Relative Humidity | Wind Chill (°F) | Heat Index (°F) | altimeter (in) | sea level (mb) | 1 hr | 3 hr | 6 hr |
| 6 hour | |||||||||||||||||
| Temperature (ºF) | Pressure | Precipitation (in) | |||||||||||||||